SPTU

Padre Aldamiz International Airport

Puerto Maldonado, Peru
SPTU 181700Z 1818/1918 35006KT 9999 BKN020 TX33/1820Z TN19/1911Z BECMG 1821/1823 00000KT FEW020
Issued Valid From Valid To
Jul-18 @ 17:00 UTC
(5 hours ago)
Jul-18 @ 18:00 UTC
(4 hours ago)
Jul-19 @ 18:00 UTC
(in 20 hours)
Expired Click to View Jul-18 @ 18:00 to Jul-18 @ 21:00
SPTU 181700Z 1818/1918 35006KT 9999 BKN020 TX33/1820Z TN19/1911Z
Wind Visibility Clouds
350° at 6 knots 10,000+ meters
  • Broken at 2,000' AGL
Becoming Jul-18 @ 21:00 to Jul-19 @ 18:00
BECMG 1821/1823 00000KT FEW020
Visibility Clouds
10,000+ meters
  • Few at 2,000' AGL
SPTU 181700Z 1818/1918 35006KT 9999 BKN020 TX33/1820Z TN19/1911Z BECMG 1821/1823 00000KT FEW020
Issued Jul-18 @ 17:00 UTC
(5 hours ago)
Valid From Jul-18 @ 18:00 UTC
(4 hours ago)
Valid To Jul-19 @ 18:00 UTC
(in 20 hours)
Jul-18 @ 18:00 - Jul-18 @ 21:00
Wind Visibility
350° at 6 knots 10,000+ meters
Clouds
  • Broken at 2,000' AGL
Becoming Jul-18 @ 21:00 - Jul-19 @ 18:00
Clouds
  • Few at 2,000' AGL